Time;durP1;ratioP1;P1;durP2;ratioP2;P2;SDS_P1;SDS_P2;PMS_P1;PMS_P2;Temp;Humidity;BMP_temperature;BMP_pressure;BME280_temperature;BME280_humidity;BME280_pressure;Samples;Min_cycle;Max_cycle;Signal;HPM_P1;HPM_P2
2023/03/21 00:00:21;;;;;;;1.27;1.20;;;17.10;68.40;;;;;;4988030;28;20803;-78
2023/03/21 00:02:46;;;;;;;1.40;1.23;;;17.10;68.40;;;;;;5003264;28;20092;-79
2023/03/21 00:05:12;;;;;;;1.25;1.25;;;17.10;68.30;;;;;;4999513;28;20058;-79
2023/03/21 00:07:37;;;;;;;1.33;1.23;;;17.10;68.40;;;;;;5002065;28;20423;-79
2023/03/21 00:10:03;;;;;;;1.77;1.63;;;17.10;68.40;;;;;;4999917;28;20061;-80
2023/03/21 00:12:31;;;;;;;1.40;1.40;;;17.10;68.50;;;;;;5004614;28;20066;-79
2023/03/21 00:15:03;;;;;;;1.40;1.30;;;17.10;68.40;;;;;;5001923;28;20053;-79
2023/03/21 00:17:31;;;;;;;1.40;1.30;;;17.10;68.40;;;;;;5001539;28;20137;-80
2023/03/21 00:19:58;;;;;;;1.10;1.10;;;17.10;68.50;;;;;;5004870;28;20100;-79
2023/03/21 00:22:24;;;;;;;0.90;0.90;;;17.10;68.40;;;;;;5003850;28;20060;-79
2023/03/21 00:24:51;;;;;;;1.15;1.10;;;17.10;68.40;;;;;;5002960;28;20096;-80
2023/03/21 00:27:18;;;;;;;1.08;1.08;;;17.10;68.40;;;;;;5005151;28;20064;-80
2023/03/21 00:29:44;;;;;;;0.80;0.80;;;17.00;68.40;;;;;;5000494;28;20085;-80
2023/03/21 00:32:10;;;;;;;1.27;0.80;;;17.10;68.40;;;;;;5002204;28;20045;-79
2023/03/21 00:34:37;;;;;;;1.65;1.10;;;17.00;68.60;;;;;;5004592;28;20049;-80
2023/03/21 00:37:02;;;;;;;1.13;1.00;;;17.00;68.80;;;;;;5002262;28;20384;-80
2023/03/21 00:39:28;;;;;;;1.20;1.10;;;17.00;68.40;;;;;;5007659;28;20065;-80
2023/03/21 00:41:54;;;;;;;1.00;1.00;;;17.00;68.20;;;;;;5002687;28;20399;-80
2023/03/21 00:44:20;;;;;;;0.90;0.90;;;17.00;68.40;;;;;;5006160;28;20045;-79
2023/03/21 00:46:45;;;;;;;1.00;1.00;;;17.00;68.30;;;;;;5004528;28;20046;-80
2023/03/21 00:49:11;;;;;;;1.17;1.17;;;17.00;68.30;;;;;;5011341;28;20050;-80
2023/03/21 00:51:37;;;;;;;1.67;1.05;;;17.00;68.40;;;;;;5003718;28;20133;-79
2023/03/21 00:54:04;;;;;;;0.77;0.77;;;17.00;68.40;;;;;;5017460;28;20467;-80
2023/03/21 00:56:30;;;;;;;1.10;1.10;;;17.00;68.40;;;;;;5020067;28;20076;-80
2023/03/21 00:58:56;;;;;;;1.02;1.02;;;17.00;68.30;;;;;;5005046;28;20099;-79
2023/03/21 01:01:21;;;;;;;2.33;0.90;;;17.00;68.30;;;;;;4988117;28;20034;-79
2023/03/21 01:03:49;;;;;;;0.98;0.95;;;17.00;68.30;;;;;;5003811;28;20064;-79
2023/03/21 01:06:18;;;;;;;0.82;0.82;;;17.00;68.30;;;;;;5019368;28;20049;-79
2023/03/21 01:08:44;;;;;;;0.80;0.80;;;17.00;68.20;;;;;;5003391;28;20080;-79
2023/03/21 01:11:12;;;;;;;1.17;1.08;;;17.00;68.20;;;;;;5004705;28;20041;-79
2023/03/21 01:13:37;;;;;;;0.70;0.70;;;17.00;68.20;;;;;;5005845;28;20042;-78
2023/03/21 01:16:04;;;;;;;0.70;0.70;;;17.00;68.20;;;;;;5002340;28;20129;-79
2023/03/21 01:18:30;;;;;;;0.90;0.90;;;17.00;68.10;;;;;;5005389;28;20042;-79
2023/03/21 01:20:56;;;;;;;1.25;0.88;;;16.90;68.10;;;;;;5006825;28;20208;-79
2023/03/21 01:23:22;;;;;;;0.98;0.90;;;16.90;68.10;;;;;;5005095;28;20042;-78
2023/03/21 01:25:48;;;;;;;0.80;0.80;;;16.90;68.00;;;;;;5005281;28;20046;-79
2023/03/21 01:28:13;;;;;;;0.70;0.70;;;16.90;68.10;;;;;;5001461;28;20038;-80
2023/03/21 01:30:43;;;;;;;1.30;1.20;;;16.90;68.10;;;;;;5003571;28;20042;-79
2023/03/21 01:33:08;;;;;;;1.55;1.45;;;16.90;68.10;;;;;;5017700;28;20069;-80
2023/03/21 01:35:36;;;;;;;1.02;1.00;;;16.90;68.00;;;;;;5004569;28;20407;-80
2023/03/21 01:38:01;;;;;;;1.10;1.10;;;16.90;68.00;;;;;;5002005;28;20038;-81
2023/03/21 01:40:27;;;;;;;0.70;0.70;;;16.90;68.10;;;;;;5004310;28;20415;-80
2023/03/21 01:42:52;;;;;;;0.80;0.80;;;16.90;68.00;;;;;;5003385;28;20085;-80
2023/03/21 01:45:55;;;;;;;0.68;0.68;;;16.90;68.00;;;;;;5016686;28;20056;-81
2023/03/21 01:48:21;;;;;;;0.65;0.65;;;16.90;68.00;;;;;;5006021;28;20053;-80
2023/03/21 01:50:47;;;;;;;0.60;0.60;;;16.90;68.00;;;;;;5002028;28;20060;-80
2023/03/21 01:53:13;;;;;;;0.80;0.80;;;16.90;68.00;;;;;;5002116;28;20049;-80
2023/03/21 01:55:39;;;;;;;0.65;0.65;;;16.90;68.00;;;;;;4987588;28;20081;-79
2023/03/21 01:58:04;;;;;;;0.80;0.80;;;16.80;68.00;;;;;;5002441;28;20131;-80
2023/03/21 02:00:30;;;;;;;0.50;0.50;;;16.80;68.00;;;;;;4997549;28;20045;-79
2023/03/21 02:02:58;;;;;;;0.63;0.60;;;16.80;67.90;;;;;;5003516;28;20577;-79
2023/03/21 02:05:32;;;;;;;0.73;0.73;;;16.90;68.00;;;;;;5003058;28;20538;-79
2023/03/21 02:07:58;;;;;;;0.47;0.47;;;16.80;68.00;;;;;;5003398;28;20541;-79
2023/03/21 02:10:23;;;;;;;0.82;0.82;;;16.80;67.90;;;;;;5004489;28;20030;-79
2023/03/21 02:12:49;;;;;;;0.38;0.35;;;16.80;67.90;;;;;;5003338;28;20616;-79
2023/03/21 02:15:15;;;;;;;0.68;0.68;;;16.80;67.90;;;;;;5004427;28;20081;-79
2023/03/21 02:17:52;;;;;;;0.60;0.60;;;16.80;67.90;;;;;;4987349;28;20131;-78
2023/03/21 02:20:35;;;;;;;0.70;0.70;;;16.80;67.80;;;;;;5003837;28;20588;-79
2023/03/21 02:23:17;;;;;;;0.50;0.50;;;16.80;67.80;;;;;;5003981;28;20053;-79
2023/03/21 02:26:15;;;;;;;0.60;0.60;;;16.80;67.90;;;;;;5003141;28;20042;-79
2023/03/21 02:28:49;;;;;;;0.63;0.63;;;16.80;67.80;;;;;;5003430;28;20034;-78
2023/03/21 02:31:31;;;;;;;;;;;16.80;67.80;;;;;;5014447;28;20056;-80
2023/03/21 02:34:32;;;;;;;0.63;0.60;;;16.80;67.80;;;;;;5012575;28;20452;-79
2023/03/21 02:37:00;;;;;;;0.75;0.65;;;16.80;67.80;;;;;;5021662;28;20053;-79
2023/03/21 02:39:44;;;;;;;0.55;0.40;;;16.80;67.80;;;;;;5004851;28;20125;-75
2023/03/21 02:42:15;;;;;;;0.60;0.60;;;16.80;67.80;;;;;;5007774;28;20045;-76
2023/03/21 02:45:09;;;;;;;0.50;0.50;;;16.80;67.80;;;;;;5021389;28;20052;-75
2023/03/21 02:47:41;;;;;;;0.60;0.60;;;16.80;67.70;;;;;;5020843;28;20064;-75
2023/03/21 02:50:23;;;;;;;0.60;0.60;;;16.80;67.70;;;;;;5020040;28;20053;-75
2023/03/21 02:52:49;;;;;;;0.50;0.50;;;16.80;67.70;;;;;;5016688;28;20053;-75
2023/03/21 02:55:25;;;;;;;0.50;0.50;;;16.80;67.70;;;;;;5021690;28;20056;-76
2023/03/21 02:57:51;;;;;;;0.60;0.60;;;16.70;67.70;;;;;;5020167;28;20490;-76
2023/03/21 03:00:23;;;;;;;0.60;0.60;;;16.80;68.50;;;;;;5007220;28;20049;-75
2023/03/21 03:02:49;;;;;;;0.60;0.60;;;16.80;67.70;;;;;;5004663;28;20135;-75
2023/03/21 03:05:22;;;;;;;0.47;0.47;;;16.80;67.80;;;;;;5019905;28;20128;-76
2023/03/21 03:08:21;;;;;;;0.55;0.50;;;16.80;67.70;;;;;;4990964;28;20076;-75
2023/03/21 03:11:13;;;;;;;0.50;0.50;;;16.80;67.70;;;;;;5013123;28;20104;-75
2023/03/21 03:13:56;;;;;;;0.88;0.73;;;16.80;67.70;;;;;;5015527;28;20111;-75
2023/03/21 03:16:35;;;;;;;0.60;0.60;;;16.70;68.60;;;;;;5004475;28;20050;-75
2023/03/21 03:19:02;;;;;;;0.70;0.70;;;16.70;67.70;;;;;;5003697;28;20129;-76
2023/03/21 03:21:32;;;;;;;0.70;0.70;;;16.70;67.70;;;;;;5006274;28;20113;-76
2023/03/21 03:24:22;;;;;;;0.95;0.63;;;16.70;67.80;;;;;;5019498;28;20068;-75
2023/03/21 03:26:53;;;;;;;0.63;0.63;;;16.80;67.80;;;;;;5003389;28;20175;-76
2023/03/21 03:29:19;;;;;;;0.68;0.68;;;16.80;67.80;;;;;;5008486;28;20045;-76
2023/03/21 03:31:52;;;;;;;0.80;0.80;;;16.80;67.80;;;;;;4985762;28;20058;-76
2023/03/21 03:34:19;;;;;;;1.60;0.80;;;16.70;67.80;;;;;;5020455;28;20129;-76
2023/03/21 03:36:50;;;;;;;0.40;0.40;;;16.70;67.90;;;;;;5005209;28;20050;-76
2023/03/21 03:39:15;;;;;;;0.50;0.50;;;16.70;67.90;;;;;;5002211;28;20096;-75
2023/03/21 03:41:45;;;;;;;0.60;0.60;;;16.70;68.00;;;;;;4989047;28;20129;-75
2023/03/21 03:44:11;;;;;;;0.60;0.60;;;16.70;67.90;;;;;;5004387;28;20111;-75
2023/03/21 03:47:04;;;;;;;0.60;0.60;;;16.70;67.90;;;;;;5018085;28;20120;-75
2023/03/21 03:49:53;;;;;;;0.45;0.45;;;16.70;67.90;;;;;;4991381;28;20467;-75
2023/03/21 03:52:33;;;;;;;0.50;0.50;;;16.70;67.80;;;;;;5005913;28;20128;-75
2023/03/21 03:54:58;;;;;;;0.50;0.50;;;16.70;68.00;;;;;;5003236;28;20042;-75
2023/03/21 03:57:25;;;;;;;0.50;0.50;;;16.70;68.10;;;;;;5006489;28;20073;-75
2023/03/21 03:59:50;;;;;;;0.43;0.43;;;16.70;68.80;;;;;;5004637;28;20523;-76
2023/03/21 04:02:16;;;;;;;0.50;0.45;;;16.70;68.00;;;;;;5004878;28;20043;-75
2023/03/21 04:04:41;;;;;;;0.52;0.52;;;16.70;68.10;;;;;;4991144;28;20739;-75
2023/03/21 04:07:07;;;;;;;0.40;0.40;;;16.70;67.80;;;;;;4988351;28;20088;-75
2023/03/21 04:09:34;;;;;;;0.70;0.50;;;16.70;67.90;;;;;;5008153;28;20046;-75
2023/03/21 04:11:59;;;;;;;0.40;0.40;;;16.70;67.90;;;;;;5004986;28;20134;-75
2023/03/21 04:14:25;;;;;;;0.30;0.30;;;16.70;68.00;;;;;;5007276;28;20046;-75
2023/03/21 04:16:51;;;;;;;0.70;0.70;;;16.70;68.00;;;;;;5006728;28;20124;-76
2023/03/21 04:19:17;;;;;;;0.43;0.43;;;16.70;68.00;;;;;;5006573;28;20069;-76
2023/03/21 04:21:45;;;;;;;0.50;0.35;;;16.70;67.90;;;;;;5019673;28;20049;-75
2023/03/21 04:24:10;;;;;;;0.35;0.30;;;16.70;68.00;;;;;;5007982;28;20048;-76
2023/03/21 04:26:38;;;;;;;0.30;0.30;;;16.70;68.00;;;;;;5005760;28;20133;-75
2023/03/21 04:29:04;;;;;;;0.40;0.40;;;16.70;67.90;;;;;;5004278;28;20038;-75
2023/03/21 04:31:30;;;;;;;0.47;0.47;;;16.70;67.90;;;;;;5007111;28;20579;-76
2023/03/21 04:33:59;;;;;;;0.43;0.43;;;16.70;67.90;;;;;;5005845;28;20048;-75
2023/03/21 04:36:37;;;;;;;0.30;0.30;;;16.70;67.90;;;;;;5006923;28;20050;-76
2023/03/21 04:39:08;;;;;;;0.30;0.30;;;16.70;68.00;;;;;;5005219;28;20069;-75
2023/03/21 04:41:36;;;;;;;0.70;0.70;;;16.70;68.00;;;;;;5019939;28;20116;-75
2023/03/21 04:44:01;;;;;;;0.40;0.40;;;16.70;67.90;;;;;;5005777;28;20049;-75
2023/03/21 04:46:27;;;;;;;0.40;0.40;;;16.70;67.90;;;;;;5004208;28;20046;-75
2023/03/21 04:48:52;;;;;;;0.73;0.40;;;16.70;67.90;;;;;;5006278;28;20120;-75
2023/03/21 04:51:18;;;;;;;0.40;0.40;;;16.70;67.90;;;;;;5007581;28;20057;-75
2023/03/21 04:53:45;;;;;;;0.43;0.43;;;16.70;67.80;;;;;;5005649;28;20045;-75
2023/03/21 04:56:11;;;;;;;0.90;0.60;;;16.60;67.80;;;;;;4998966;28;20148;-75
2023/03/21 04:58:39;;;;;;;0.45;0.45;;;16.70;67.80;;;;;;5006379;28;20065;-75
2023/03/21 05:01:05;;;;;;;0.55;0.55;;;16.60;68.00;;;;;;5014746;28;20068;-75
2023/03/21 05:03:38;;;;;;;0.45;0.38;;;16.60;68.00;;;;;;5007272;28;20049;-76
2023/03/21 05:06:07;;;;;;;0.30;0.30;;;16.70;68.10;;;;;;5005610;28;20129;-76
2023/03/21 05:08:34;;;;;;;1.13;0.60;;;16.70;68.10;;;;;;5003615;28;20100;-76
2023/03/21 05:11:00;;;;;;;0.68;0.50;;;16.60;68.00;;;;;;5004151;28;20054;-76
2023/03/21 05:13:26;;;;;;;0.70;0.70;;;16.70;68.00;;;;;;5003454;28;20034;-75
2023/03/21 05:15:51;;;;;;;0.50;0.50;;;16.60;67.90;;;;;;5003942;28;20044;-75
2023/03/21 05:18:23;;;;;;;0.90;0.80;;;16.60;68.00;;;;;;5005972;28;20038;-76
2023/03/21 05:20:52;;;;;;;1.15;0.85;;;16.70;68.10;;;;;;5003961;28;20099;-76
2023/03/21 05:23:18;;;;;;;0.70;0.70;;;16.60;68.00;;;;;;5014755;28;20067;-75
2023/03/21 05:25:43;;;;;;;0.70;0.60;;;16.70;68.10;;;;;;5003891;28;20535;-75
2023/03/21 05:28:09;;;;;;;0.95;0.70;;;16.70;68.00;;;;;;5004635;28;20054;-75
2023/03/21 05:30:34;;;;;;;0.55;0.55;;;16.70;68.90;;;;;;5003627;28;20590;-75
2023/03/21 05:33:00;;;;;;;0.50;0.50;;;16.70;69.00;;;;;;5015956;28;20042;-75
2023/03/21 05:35:25;;;;;;;0.80;0.60;;;16.70;68.20;;;;;;5004053;28;20050;-75
2023/03/21 05:37:52;;;;;;;0.40;0.40;;;16.70;68.20;;;;;;4986994;28;20076;-75
2023/03/21 05:40:17;;;;;;;1.33;0.93;;;16.70;68.30;;;;;;5001806;28;20055;-75
2023/03/21 05:42:44;;;;;;;1.27;0.50;;;16.70;68.30;;;;;;5004854;28;20138;-76
2023/03/21 05:45:10;;;;;;;0.82;0.40;;;16.70;68.30;;;;;;4998726;28;20080;-75
2023/03/21 05:47:35;;;;;;;0.57;0.40;;;16.60;69.10;;;;;;5004496;28;20067;-75
2023/03/21 05:50:01;;;;;;;0.40;0.40;;;16.70;68.40;;;;;;5002876;28;20111;-75
2023/03/21 05:52:28;;;;;;;0.38;0.38;;;16.70;68.40;;;;;;5003781;28;20058;-75
2023/03/21 05:54:54;;;;;;;0.50;0.50;;;16.70;68.40;;;;;;5002303;28;20061;-75
2023/03/21 05:57:19;;;;;;;0.50;0.50;;;16.70;68.40;;;;;;5007013;28;20054;-75
2023/03/21 05:59:45;;;;;;;0.57;0.50;;;16.70;68.40;;;;;;5004008;28;20091;-75
2023/03/21 06:02:11;;;;;;;0.50;0.40;;;16.70;68.40;;;;;;5003283;28;20136;-75
2023/03/21 06:04:36;;;;;;;0.43;0.43;;;16.70;68.40;;;;;;5006309;28;20481;-76
2023/03/21 06:07:02;;;;;;;0.60;0.40;;;16.60;68.30;;;;;;5004376;28;20185;-75
2023/03/21 06:09:28;;;;;;;0.40;0.40;;;16.70;68.70;;;;;;5006260;28;20042;-75
2023/03/21 06:11:54;;;;;;;0.30;0.30;;;16.70;68.90;;;;;;5019948;28;20415;-74
2023/03/21 06:14:20;;;;;;;2.97;0.60;;;16.70;68.50;;;;;;5003132;28;20057;-72
2023/03/21 06:16:46;;;;;;;1.10;0.50;;;16.80;68.90;;;;;;5002765;28;20046;-73
2023/03/21 06:19:11;;;;;;;0.70;0.50;;;16.70;68.80;;;;;;5004859;28;20562;-74
2023/03/21 06:21:37;;;;;;;0.57;0.57;;;16.80;68.80;;;;;;5000962;28;20057;-74
2023/03/21 06:24:03;;;;;;;0.77;0.77;;;16.70;69.00;;;;;;5012175;28;20572;-75
2023/03/21 06:26:29;;;;;;;2.95;0.90;;;16.80;69.50;;;;;;5001858;28;20538;-74
2023/03/21 06:28:54;;;;;;;4.00;0.77;;;16.80;70.40;;;;;;5002040;28;20088;-75
2023/03/21 06:31:24;;;;;;;0.73;0.60;;;16.80;70.50;;;;;;5005240;28;20050;-74
2023/03/21 06:33:50;;;;;;;2.08;0.90;;;16.80;70.40;;;;;;5003023;28;20054;-75
2023/03/21 06:36:16;;;;;;;0.73;0.70;;;16.70;70.50;;;;;;5017853;28;20138;-74
2023/03/21 06:38:41;;;;;;;0.52;0.50;;;16.80;71.20;;;;;;5004490;28;20042;-74
2023/03/21 06:41:07;;;;;;;0.80;0.65;;;16.80;72.10;;;;;;5002529;28;20038;-75
2023/03/21 06:43:33;;;;;;;0.82;0.82;;;16.80;71.30;;;;;;5003350;28;20045;-74
2023/03/21 06:45:59;;;;;;;1.25;0.70;;;16.80;72.10;;;;;;4999675;28;20511;-75
2023/03/21 06:48:25;;;;;;;0.93;0.60;;;16.80;71.80;;;;;;5017333;28;20100;-75
2023/03/21 06:50:50;;;;;;;1.75;0.70;;;16.80;72.10;;;;;;5003570;28;20105;-75
2023/03/21 06:53:17;;;;;;;0.60;0.60;;;16.80;72.10;;;;;;4999670;28;20041;-75
2023/03/21 06:55:42;;;;;;;0.77;0.77;;;16.80;71.80;;;;;;5001046;28;20101;-76
2023/03/21 06:58:08;;;;;;;0.80;0.50;;;16.80;72.50;;;;;;5000431;28;20454;-75
2023/03/21 07:00:33;;;;;;;1.42;1.15;;;16.80;73.90;;;;;;5006019;28;20142;-75
2023/03/21 07:03:00;;;;;;;0.95;0.90;;;16.80;74.30;;;;;;5005043;28;20038;-76
2023/03/21 07:05:26;;;;;;;0.60;0.60;;;16.80;74.20;;;;;;5005633;28;20506;-76
2023/03/21 07:07:51;;;;;;;0.65;0.60;;;16.80;74.70;;;;;;5005573;28;20117;-74
2023/03/21 07:10:17;;;;;;;0.60;0.50;;;16.80;74.30;;;;;;5003978;28;20039;-75
2023/03/21 07:12:43;;;;;;;0.68;0.60;;;16.80;74.20;;;;;;5006563;28;20061;-75
2023/03/21 07:15:08;;;;;;;0.45;0.45;;;16.80;74.40;;;;;;5009896;28;20201;-75
2023/03/21 07:17:34;;;;;;;0.70;0.50;;;16.80;74.90;;;;;;5006234;28;20510;-75
2023/03/21 07:20:00;;;;;;;0.77;0.50;;;16.80;74.80;;;;;;5007033;28;20053;-75
2023/03/21 07:22:25;;;;;;;1.25;0.60;;;16.80;75.10;;;;;;4986916;28;20049;-74
2023/03/21 07:24:51;;;;;;;0.60;0.60;;;16.80;75.10;;;;;;5006908;28;20056;-75
2023/03/21 07:27:17;;;;;;;0.57;0.40;;;16.80;75.20;;;;;;5008427;28;20045;-75
2023/03/21 07:29:46;;;;;;;0.95;0.52;;;16.90;74.10;;;;;;5020070;28;20492;-75
2023/03/21 07:32:11;;;;;;;2.45;0.95;;;16.90;74.50;;;;;;5007933;28;20057;-75
2023/03/21 07:34:37;;;;;;;0.47;0.47;;;16.90;74.60;;;;;;5005369;28;20108;-75
2023/03/21 07:37:03;;;;;;;0.85;0.57;;;16.90;74.60;;;;;;5006851;28;20061;-75
2023/03/21 07:39:29;;;;;;;0.50;0.50;;;16.90;74.50;;;;;;5008394;28;20462;-76
2023/03/21 07:41:54;;;;;;;0.60;0.60;;;16.90;74.40;;;;;;5004783;28;20396;-77
2023/03/21 07:44:21;;;;;;;0.65;0.60;;;17.00;73.80;;;;;;5002594;28;20101;-78
2023/03/21 07:46:47;;;;;;;0.70;0.55;;;17.00;74.20;;;;;;4990416;28;20053;-81
2023/03/21 07:49:12;;;;;;;0.70;0.60;;;17.00;75.20;;;;;;5004207;28;20042;-78
2023/03/21 07:51:38;;;;;;;0.95;0.60;;;17.00;74.80;;;;;;5005580;28;20053;-78
2023/03/21 07:54:04;;;;;;;0.68;0.50;;;17.00;74.40;;;;;;5008067;28;20664;-80
2023/03/21 07:56:29;;;;;;;0.80;0.73;;;17.00;75.40;;;;;;5006805;28;20046;-77
2023/03/21 07:58:55;;;;;;;1.45;0.60;;;17.00;75.00;;;;;;5004736;28;20037;-78
2023/03/21 08:01:20;;;;;;;1.00;0.77;;;17.00;76.10;;;;;;4986278;28;20050;-76
2023/03/21 08:03:46;;;;;;;0.68;0.68;;;17.00;75.30;;;;;;5007301;28;20165;-76
2023/03/21 08:06:12;;;;;;;3.80;0.55;;;17.00;75.90;;;;;;5008724;28;20042;-75
2023/03/21 08:08:38;;;;;;;1.50;0.52;;;17.00;75.60;;;;;;5007052;28;20034;-75
2023/03/21 08:11:04;;;;;;;0.60;0.60;;;17.00;75.30;;;;;;5006115;28;20045;-75
2023/03/21 08:13:31;;;;;;;0.60;0.60;;;17.00;74.90;;;;;;5006976;28;20046;-75
2023/03/21 08:15:57;;;;;;;0.50;0.45;;;17.00;75.30;;;;;;5005466;28;20034;-75
2023/03/21 08:18:23;;;;;;;0.50;0.50;;;17.00;75.70;;;;;;5009472;28;20053;-75
2023/03/21 08:20:52;;;;;;;0.45;0.45;;;17.00;75.90;;;;;;5007308;28;20569;-75
2023/03/21 08:23:18;;;;;;;0.90;0.50;;;17.00;76.40;;;;;;5020191;28;20042;-75
2023/03/21 08:25:43;;;;;;;0.45;0.40;;;17.00;76.30;;;;;;4987508;28;20384;-75
2023/03/21 08:28:09;;;;;;;0.50;0.50;;;17.00;76.60;;;;;;5006189;28;20125;-75
2023/03/21 08:30:34;;;;;;;2.20;0.40;;;17.00;76.60;;;;;;5006524;28;20458;-77
2023/03/21 08:33:00;;;;;;;0.65;0.65;;;17.00;76.60;;;;;;5008043;28;20060;-75
2023/03/21 08:35:26;;;;;;;0.75;0.52;;;17.00;76.40;;;;;;4988557;28;20046;-75
2023/03/21 08:37:52;;;;;;;0.95;0.60;;;17.00;75.50;;;;;;5005023;28;20056;-75
2023/03/21 08:40:19;;;;;;;0.45;0.30;;;17.10;74.90;;;;;;5006007;28;20045;-84
2023/03/21 08:42:45;;;;;;;0.68;0.50;;;17.10;74.30;;;;;;5005059;28;20117;-85
2023/03/21 08:45:11;;;;;;;0.30;0.30;;;17.10;75.30;;;;;;5022205;28;20503;-85
2023/03/21 08:47:37;;;;;;;0.60;0.60;;;17.10;75.20;;;;;;5003413;28;20041;-83
2023/03/21 08:50:05;;;;;;;1.23;0.50;;;17.20;74.70;;;;;;5006712;28;20045;-83
2023/03/21 08:52:31;;;;;;;0.82;0.50;;;17.20;75.00;;;;;;5006766;28;20419;-81
2023/03/21 08:54:56;;;;;;;0.40;0.40;;;17.20;75.10;;;;;;5001909;28;20030;-84
2023/03/21 08:57:22;;;;;;;0.40;0.40;;;17.20;75.10;;;;;;5007229;28;20413;-86
2023/03/21 08:59:47;;;;;;;0.90;0.40;;;17.20;74.80;;;;;;5006454;28;20121;-87
2023/03/21 09:02:15;;;;;;;0.98;0.30;;;17.20;74.30;;;;;;5010157;28;20048;-86
2023/03/21 09:04:42;;;;;;;0.43;0.30;;;17.20;74.20;;;;;;5005531;28;20030;-82
2023/03/21 09:07:10;;;;;;;0.35;0.35;;;17.30;74.40;;;;;;5004596;28;20030;-82
2023/03/21 09:09:36;;;;;;;0.40;0.40;;;17.30;74.40;;;;;;5006285;28;20105;-82
2023/03/21 09:12:01;;;;;;;0.60;0.28;;;17.30;74.30;;;;;;5006512;28;20072;-83
2023/03/21 09:14:27;;;;;;;0.30;0.30;;;17.30;74.30;;;;;;5004058;28;20511;-82
2023/03/21 09:16:53;;;;;;;0.65;0.47;;;17.30;74.30;;;;;;5004240;28;20045;-82
2023/03/21 09:19:18;;;;;;;2.03;0.47;;;17.40;74.20;;;;;;5004703;28;20096;-82
2023/03/21 09:21:44;;;;;;;1.48;0.63;;;17.30;74.40;;;;;;5004059;28;20042;-82
2023/03/21 09:24:11;;;;;;;0.80;0.40;;;17.30;74.30;;;;;;5006473;28;20129;-82
2023/03/21 09:26:37;;;;;;;1.23;0.40;;;17.30;74.10;;;;;;5006718;28;20042;-82
2023/03/21 09:29:04;;;;;;;1.02;0.40;;;17.30;74.00;;;;;;5004588;28;20168;-83
2023/03/21 09:31:30;;;;;;;0.50;0.30;;;17.30;73.90;;;;;;5006386;28;20144;-81
2023/03/21 09:33:57;;;;;;;0.70;0.38;;;17.30;73.40;;;;;;5003848;28;20129;-83
2023/03/21 09:36:26;;;;;;;0.38;0.38;;;17.30;73.20;;;;;;5004714;28;20546;-82
2023/03/21 09:38:51;;;;;;;0.52;0.52;;;17.30;72.80;;;;;;5005183;28;20123;-82
2023/03/21 09:41:34;;;;;;;0.38;0.38;;;17.30;72.80;;;;;;5001873;28;20070;-82
2023/03/21 09:44:18;;;;;;;0.22;0.22;;;17.30;72.30;;;;;;5004363;28;20042;-83
2023/03/21 09:47:01;;;;;;;0.65;0.50;;;17.20;72.30;;;;;;5005033;28;20041;-83
2023/03/21 09:49:30;;;;;;;0.30;0.30;;;17.20;72.10;;;;;;5000855;28;21320;-83
2023/03/21 09:51:57;;;;;;;1.05;0.30;;;17.30;72.10;;;;;;4996770;28;20073;-83
2023/03/21 09:54:26;;;;;;;0.70;0.32;;;17.30;72.10;;;;;;5004883;28;20121;-83
2023/03/21 09:56:53;;;;;;;0.40;0.40;;;17.30;72.10;;;;;;5004673;28;20054;-82
2023/03/21 09:59:26;;;;;;;1.35;0.40;;;17.30;72.10;;;;;;5004093;28;20045;-80
2023/03/21 10:01:53;;;;;;;0.98;0.43;;;17.30;72.10;;;;;;5003591;28;20045;-82
2023/03/21 10:04:19;;;;;;;0.77;0.30;;;17.30;72.10;;;;;;4999949;28;20029;-80
2023/03/21 10:06:47;;;;;;;0.63;0.40;;;17.30;72.10;;;;;;5005619;28;20104;-82
2023/03/21 10:09:14;;;;;;;0.38;0.30;;;17.30;72.10;;;;;;5021059;28;20566;-84
2023/03/21 10:11:47;;;;;;;0.47;0.30;;;17.30;72.50;;;;;;4991435;28;20054;-87
2023/03/21 10:14:40;;;;;;;0.55;0.30;;;17.30;73.00;;;;;;5002178;28;21185;-87
2023/03/21 10:17:27;;;;;;;0.30;0.30;;;17.30;73.40;;;;;;5003557;28;20069;-87
2023/03/21 10:20:17;;;;;;;0.40;0.30;;;17.40;73.50;;;;;;5001529;28;20049;-82
2023/03/21 10:22:44;;;;;;;1.17;0.40;;;17.40;73.20;;;;;;5003480;28;20048;-82
2023/03/21 10:25:12;;;;;;;0.30;0.30;;;17.40;73.30;;;;;;4987007;28;20152;-79
2023/03/21 10:27:38;;;;;;;0.77;0.40;;;17.40;73.00;;;;;;5005095;28;20491;-86
2023/03/21 10:30:06;;;;;;;2.67;0.40;;;17.40;73.20;;;;;;5002598;28;20121;-86
2023/03/21 10:32:31;;;;;;;1.23;0.40;;;17.40;73.10;;;;;;5016458;28;20637;-79
2023/03/21 10:34:57;;;;;;;2.30;0.30;;;17.30;73.10;;;;;;5014244;28;20044;-82
2023/03/21 10:37:23;;;;;;;0.40;0.40;;;17.30;73.00;;;;;;5003382;28;20046;-82
2023/03/21 10:39:50;;;;;;;0.20;0.20;;;17.30;73.00;;;;;;5001979;28;20764;-84
2023/03/21 10:42:22;;;;;;;1.70;0.47;;;17.30;72.80;;;;;;5020832;28;20108;-85
2023/03/21 10:44:49;;;;;;;1.08;0.47;;;17.30;72.70;;;;;;4984876;28;20034;-85
2023/03/21 10:47:25;;;;;;;1.75;0.73;;;17.30;73.20;;;;;;4988206;28;20041;-84
2023/03/21 10:49:50;;;;;;;1.27;0.43;;;17.40;73.50;;;;;;5007864;28;20041;-85
2023/03/21 10:52:20;;;;;;;2.17;0.50;;;17.40;73.20;;;;;;5005683;28;20053;-84
2023/03/21 10:54:47;;;;;;;1.75;0.70;;;17.40;73.10;;;;;;4996820;28;20050;-85
2023/03/21 10:57:19;;;;;;;0.50;0.50;;;17.40;73.10;;;;;;5020568;28;20037;-84
2023/03/21 10:59:48;;;;;;;0.50;0.40;;;17.40;73.00;;;;;;5003724;28;20113;-85
2023/03/21 11:02:20;;;;;;;0.93;0.50;;;17.40;72.90;;;;;;5002681;28;20042;-85
2023/03/21 11:04:45;;;;;;;1.13;0.40;;;17.40;73.00;;;;;;5003178;28;20042;-85
2023/03/21 11:07:14;;;;;;;0.63;0.40;;;17.40;72.80;;;;;;5003504;28;20103;-85
2023/03/21 11:09:43;;;;;;;1.05;0.50;;;17.40;72.50;;;;;;5018153;28;20049;-85
2023/03/21 11:12:10;;;;;;;1.17;0.50;;;17.50;72.90;;;;;;5005417;28;20050;-85
2023/03/21 11:14:40;;;;;;;0.50;0.50;;;17.50;72.90;;;;;;5003970;28;20535;-85
2023/03/21 11:17:33;;;;;;;0.98;0.50;;;17.50;72.80;;;;;;5001827;28;20038;-85
2023/03/21 11:20:07;;;;;;;2.05;0.50;;;17.50;72.50;;;;;;5013925;28;20041;-86
2023/03/21 11:22:41;;;;;;;1.85;0.55;;;17.50;72.50;;;;;;5001567;28;20117;-85
2023/03/21 11:25:10;;;;;;;0.77;0.57;;;17.50;72.20;;;;;;5019221;28;20530;-85
2023/03/21 11:27:36;;;;;;;1.20;0.60;;;17.50;72.20;;;;;;4999924;28;20117;-85
2023/03/21 11:30:04;;;;;;;1.98;0.30;;;17.60;72.30;;;;;;5019066;28;20046;-86
2023/03/21 11:32:33;;;;;;;0.68;0.35;;;17.60;72.30;;;;;;4999740;28;20065;-86
2023/03/21 11:35:01;;;;;;;1.38;0.40;;;17.60;72.30;;;;;;5003488;28;20562;-85
2023/03/21 11:37:27;;;;;;;0.45;0.45;;;17.60;72.10;;;;;;4982402;28;20506;-86
2023/03/21 11:40:08;;;;;;;0.65;0.38;;;17.60;72.00;;;;;;5002544;28;20551;-85
2023/03/21 11:42:41;;;;;;;1.23;0.30;;;17.60;71.90;;;;;;5017734;28;20045;-85
2023/03/21 11:45:11;;;;;;;2.55;0.40;;;17.60;71.80;;;;;;5001154;28;20069;-86
2023/03/21 11:47:37;;;;;;;0.55;0.40;;;17.60;71.80;;;;;;5017168;28;20077;-86
2023/03/21 11:50:19;;;;;;;1.58;0.25;;;17.60;71.80;;;;;;5003795;28;20503;-85
2023/03/21 11:52:53;;;;;;;2.05;0.65;;;17.60;71.70;;;;;;5002732;28;20056;-87
2023/03/21 11:55:24;;;;;;;0.52;0.30;;;17.60;71.90;;;;;;5004984;28;20045;-86
2023/03/21 11:58:16;;;;;;;0.40;0.28;;;17.60;71.90;;;;;;5006122;28;20882;-88
2023/03/21 12:01:05;;;;;;;1.08;0.20;;;17.60;72.00;;;;;;5002237;28;20045;-87
2023/03/21 12:03:46;;;;;;;0.60;0.40;;;17.60;72.00;;;;;;5005186;28;20042;-87
2023/03/21 12:06:32;;;;;;;0.50;0.30;;;17.60;72.10;;;;;;5004957;28;20045;-88
2023/03/21 12:09:13;;;;;;;0.35;0.28;;;17.60;71.90;;;;;;5003222;28;20038;-88
2023/03/21 12:11:53;;;;;;;0.70;0.30;;;17.60;71.70;;;;;;5005795;28;20432;-87
2023/03/21 12:14:37;;;;;;;0.40;0.40;;;17.60;71.60;;;;;;4997064;28;20060;-85
2023/03/21 12:17:13;;;;;;;0.80;0.60;;;17.60;71.80;;;;;;5002888;28;20511;-88
2023/03/21 12:19:50;;;;;;;3.28;0.30;;;17.60;71.70;;;;;;5001662;28;20054;-82
2023/03/21 12:22:25;;;;;;;0.52;0.50;;;17.60;71.80;;;;;;5003794;28;20049;-84
2023/03/21 12:24:54;;;;;;;0.55;0.30;;;17.70;71.90;;;;;;5001744;28;20103;-85
2023/03/21 12:27:28;;;;;;;0.47;0.40;;;17.70;72.10;;;;;;5006813;28;20046;-85
2023/03/21 12:30:10;;;;;;;0.65;0.40;;;17.70;71.80;;;;;;5006566;28;20108;-85
2023/03/21 12:32:57;;;;;;;0.70;0.50;;;17.70;71.80;;;;;;4999402;28;20049;-86
2023/03/21 12:35:32;;;;;;;0.70;0.70;;;17.70;71.80;;;;;;5006355;28;20052;-85
2023/03/21 12:38:25;;;;;;;1.25;0.30;;;17.70;71.70;;;;;;5004938;28;20061;-86
2023/03/21 12:41:04;;;;;;;0.50;0.50;;;17.60;71.60;;;;;;5006025;28;20050;-86
2023/03/21 12:43:40;;;;;;;0.30;0.30;;;17.60;71.60;;;;;;5003527;28;20056;-85
2023/03/21 12:46:38;;;;;;;0.30;0.30;;;17.70;71.60;;;;;;5001529;28;20606;-85
2023/03/21 12:49:23;;;;;;;0.60;0.47;;;17.70;71.50;;;;;;5005284;28;20072;-85
2023/03/21 12:51:50;;;;;;;;;;;17.70;71.50;;;;;;5003909;28;20046;-85
2023/03/21 12:54:28;;;;;;;0.30;0.30;;;17.70;71.50;;;;;;5006944;28;19926;-85
2023/03/21 12:57:10;;;;;;;1.20;0.45;;;17.60;71.40;;;;;;5003254;28;20096;-85
2023/03/21 12:59:46;;;;;;;0.47;0.47;;;17.60;71.40;;;;;;5002780;28;20054;-85